Time;durP1;ratioP1;P1;durP2;ratioP2;P2;SDS_P1;SDS_P2;PMS_P1;PMS_P2;Temp;Humidity;BMP_temperature;BMP_pressure;BME280_temperature;BME280_humidity;BME280_pressure;Samples;Min_cycle;Max_cycle;Signal;HPM_P1;HPM_P2
2022/07/18 00:01:21;;;;;;;2.37;2.27;;;;;;;13.50;97.30;97834.00;5040626;28;20239;-60
2022/07/18 00:03:50;;;;;;;2.47;1.80;;;;;;;13.51;96.41;97832.97;5043330;28;20198;-52
2022/07/18 00:06:19;;;;;;;2.17;1.87;;;;;;;13.45;98.17;97839.88;5043447;28;20277;-58
2022/07/18 00:08:47;;;;;;;2.07;1.60;;;;;;;13.40;99.96;97834.25;4998044;28;20405;-56
2022/07/18 00:11:16;;;;;;;4.97;1.97;;;;;;;13.32;100.00;97835.16;5042389;28;20293;-57
2022/07/18 00:13:44;;;;;;;2.00;1.90;;;;;;;13.22;100.00;97831.97;5021245;28;20262;-58
2022/07/18 00:16:12;;;;;;;2.17;1.80;;;;;;;13.17;100.00;97831.72;5042210;28;20191;-58
2022/07/18 00:18:40;;;;;;;2.20;2.00;;;;;;;13.12;100.00;97826.94;5035153;28;20292;-54
2022/07/18 00:21:08;;;;;;;3.40;2.20;;;;;;;13.12;100.00;97824.28;5037885;28;20247;-57
2022/07/18 00:23:38;;;;;;;2.27;1.90;;;;;;;13.06;100.00;97827.66;4992743;28;20235;-58
2022/07/18 00:26:06;;;;;;;3.23;2.37;;;;;;;13.08;100.00;97824.84;5038234;28;20324;-56
2022/07/18 00:28:34;;;;;;;3.47;2.10;;;;;;;13.02;100.00;97832.53;5038556;28;20592;-54
2022/07/18 00:31:04;;;;;;;1.93;1.70;;;;;;;13.01;100.00;97833.53;5020058;28;20250;-57
2022/07/18 00:33:32;;;;;;;2.60;2.40;;;;;;;12.98;100.00;97831.25;5035256;28;20276;-55
2022/07/18 00:36:00;;;;;;;2.40;1.93;;;;;;;12.93;100.00;97830.97;5036766;28;20639;-57
2022/07/18 00:38:28;;;;;;;3.43;1.90;;;;;;;12.90;100.00;97828.69;4995975;28;20270;-56
2022/07/18 00:40:57;;;;;;;2.63;1.70;;;;;;;12.85;100.00;97829.22;5034950;28;20430;-56
2022/07/18 00:43:25;;;;;;;2.77;1.70;;;;;;;12.79;100.00;97832.59;5038201;28;20203;-55
2022/07/18 00:45:53;;;;;;;3.23;2.00;;;;;;;12.73;100.00;97831.53;5023387;28;20254;-56
2022/07/18 00:48:22;;;;;;;3.03;2.30;;;;;;;12.73;100.00;97842.16;5042069;28;20522;-57
2022/07/18 00:50:50;;;;;;;2.43;2.23;;;;;;;12.76;100.00;97840.94;5034580;28;20459;-54
2022/07/18 00:53:18;;;;;;;1.47;1.47;;;;;;;12.70;100.00;97844.34;4994069;28;21018;-55
2022/07/18 00:55:47;;;;;;;2.90;1.87;;;;;;;12.65;100.00;97841.41;5036542;28;20273;-56
2022/07/18 00:58:16;;;;;;;3.43;1.90;;;;;;;12.59;100.00;97834.97;5041644;28;20565;-58
2022/07/18 01:03:30;;;;;;;1.97;1.80;;;;;;;12.49;100.00;97842.38;5036015;28;20208;-57
2022/07/18 01:05:58;;;;;;;3.40;2.10;;;;;;;12.46;100.00;97838.25;5036423;28;20314;-58
2022/07/18 01:08:27;;;;;;;1.90;1.77;;;;;;;12.44;100.00;97840.25;4994609;28;20207;-58
2022/07/18 01:10:55;;;;;;;2.07;1.87;;;;;;;12.37;100.00;97829.53;5043281;28;20250;-55
2022/07/18 01:13:25;;;;;;;2.10;2.00;;;;;;;12.38;100.00;97833.84;5035364;28;20253;-53
2022/07/18 01:15:53;;;;;;;4.60;1.90;;;;;;;12.38;100.00;97835.66;5019390;28;20203;-55
2022/07/18 01:18:22;;;;;;;2.43;2.03;;;;;;;12.35;100.00;97838.69;5039784;28;20423;-56
2022/07/18 01:20:51;;;;;;;2.00;1.90;;;;;;;12.32;100.00;97831.91;5036685;28;20843;-56
2022/07/18 01:23:19;;;;;;;2.70;2.00;;;;;;;12.24;100.00;97830.13;5038100;28;20232;-55
2022/07/18 01:25:47;;;;;;;2.33;2.13;;;;;;;12.22;100.00;97828.66;5003069;28;20652;-57
2022/07/18 01:28:16;;;;;;;1.90;1.80;;;;;;;12.20;100.00;97822.69;5041854;28;20307;-58
2022/07/18 01:30:44;;;;;;;2.40;2.20;;;;;;;12.18;100.00;97825.53;5037342;28;20248;-57
2022/07/18 01:33:12;;;;;;;2.37;2.17;;;;;;;12.14;100.00;97832.22;5029220;28;20735;-58
2022/07/18 01:35:40;;;;;;;2.13;2.03;;;;;;;12.15;100.00;97829.38;5040342;28;20738;-51
2022/07/18 01:38:09;;;;;;;1.90;1.80;;;;;;;12.17;100.00;97834.50;5041242;28;20207;-57
2022/07/18 01:40:37;;;;;;;2.47;2.00;;;;;;;12.18;100.00;97830.00;4994606;28;20255;-57
2022/07/18 01:43:05;;;;;;;2.33;1.87;;;;;;;12.12;100.00;97832.38;4990213;28;20854;-54
2022/07/18 01:45:35;;;;;;;2.13;1.93;;;;;;;12.08;100.00;97836.41;5028757;28;20455;-57
2022/07/18 01:48:03;;;;;;;2.77;2.00;;;;;;;12.03;100.00;97833.44;5035991;28;20664;-55
2022/07/18 01:50:31;;;;;;;2.33;2.23;;;;;;;11.98;100.00;97830.47;5029988;28;20667;-57
2022/07/18 01:52:59;;;;;;;2.30;2.20;;;;;;;11.92;100.00;97831.16;5024256;28;20982;-51
2022/07/18 01:55:28;;;;;;;2.13;1.93;;;;;;;11.89;100.00;97829.69;5020689;28;20867;-54
2022/07/18 01:57:57;;;;;;;2.23;2.10;;;;;;;11.85;100.00;97831.06;5026814;28;20327;-59
2022/07/18 02:00:25;;;;;;;5.87;2.27;;;;;;;11.81;100.00;97840.38;4996618;28;20232;-54
2022/07/18 02:02:53;;;;;;;3.00;2.73;;;;;;;11.81;100.00;97840.38;5043191;28;20679;-58
2022/07/18 02:05:21;;;;;;;2.47;2.23;;;;;;;11.77;100.00;97844.38;5022864;28;20276;-55
2022/07/18 02:07:49;;;;;;;3.13;2.13;;;;;;;11.75;100.00;97846.41;5039744;28;20199;-57
2022/07/18 02:10:20;;;;;;;7.60;2.60;;;;;;;11.69;100.00;97847.91;5042448;28;20254;-54
2022/07/18 02:12:50;;;;;;;2.27;2.07;;;;;;;11.67;100.00;97844.59;5025595;28;20839;-56
2022/07/18 02:15:18;;;;;;;3.23;2.40;;;;;;;11.66;100.00;97848.25;4998357;28;20728;-56
2022/07/18 02:17:46;;;;;;;1.90;1.80;;;;;;;11.58;100.00;97847.31;5041556;28;20203;-55
2022/07/18 02:20:15;;;;;;;2.23;2.13;;;;;;;11.55;100.00;97852.13;5037207;28;20277;-56
2022/07/18 02:22:44;;;;;;;2.33;2.10;;;;;;;11.49;100.00;97855.47;5011034;28;20204;-58
2022/07/18 02:25:13;;;;;;;2.20;2.10;;;;;;;11.46;100.00;97846.03;5039200;28;20227;-56
2022/07/18 02:27:41;;;;;;;2.13;2.03;;;;;;;11.37;100.00;97850.56;5027027;28;20706;-57
2022/07/18 02:30:11;;;;;;;2.40;2.20;;;;;;;11.33;100.00;97848.41;4995047;28;20836;-58
2022/07/18 02:32:39;;;;;;;3.73;2.33;;;;;;;11.28;100.00;97847.13;5043801;28;20231;-55
2022/07/18 02:35:09;;;;;;;1.90;1.80;;;;;;;11.24;100.00;97843.16;5035994;28;20215;-55
2022/07/18 02:37:41;;;;;;;2.83;2.37;;;;;;;11.21;100.00;97840.84;5027111;28;20287;-58
2022/07/18 02:40:10;;;;;;;2.77;1.80;;;;;;;11.17;100.00;97852.78;5036130;28;20367;-54
2022/07/18 02:42:39;;;;;;;2.33;1.73;;;;;;;11.11;100.00;97849.00;5027565;28;20763;-57
2022/07/18 02:45:10;;;;;;;3.87;3.20;;;;;;;11.06;100.00;97847.84;5011201;28;20279;-57
2022/07/18 02:47:39;;;;;;;2.90;2.70;;;;;;;11.06;100.00;97843.38;5039578;28;20731;-56
2022/07/18 02:50:08;;;;;;;2.70;2.60;;;;;;;11.05;100.00;97846.19;5035506;28;20334;-56
2022/07/18 02:53:14;;;;;;;2.50;2.30;;;;;;;11.00;100.00;97842.22;5018435;28;20564;-53
2022/07/18 02:55:42;;;;;;;2.50;2.30;;;;;;;10.99;100.00;97847.72;5038747;28;20425;-54
2022/07/18 02:58:10;;;;;;;1.83;1.80;;;;;;;10.97;100.00;97842.56;5022729;28;20795;-50
2022/07/18 03:00:40;;;;;;;3.67;3.37;;;;;;;10.98;100.00;97851.34;4961645;28;20531;-54
2022/07/18 03:03:08;;;;;;;2.43;2.20;;;;;;;10.96;100.00;97840.06;5044084;28;20261;-53
2022/07/18 03:05:36;;;;;;;2.30;2.20;;;;;;;10.94;100.00;97850.03;5038836;28;20866;-55
2022/07/18 03:08:05;;;;;;;2.60;2.40;;;;;;;10.92;100.00;97854.66;5018891;28;20733;-54
2022/07/18 03:10:33;;;;;;;2.47;2.13;;;;;;;10.92;100.00;97852.03;5038925;28;20300;-58
2022/07/18 03:13:01;;;;;;;2.10;2.00;;;;;;;10.93;100.00;97853.69;5042824;28;20617;-56
2022/07/18 03:15:29;;;;;;;2.30;2.10;;;;;;;10.89;100.00;97849.72;4957885;28;20555;-52
2022/07/18 03:17:59;;;;;;;2.53;2.43;;;;;;;10.84;100.00;97856.34;5038735;28;20228;-56
2022/07/18 03:20:27;;;;;;;3.17;2.40;;;;;;;10.83;100.00;97854.69;5038027;28;20738;-54
2022/07/18 03:22:55;;;;;;;2.73;2.50;;;;;;;10.79;100.00;97852.53;5012920;28;20306;-59
2022/07/18 03:25:23;;;;;;;2.90;2.70;;;;;;;10.78;100.00;97869.44;5039154;28;20195;-58
2022/07/18 03:27:52;;;;;;;2.60;2.40;;;;;;;10.76;100.00;97869.63;5037970;28;20714;-55
2022/07/18 03:30:20;;;;;;;2.20;2.10;;;;;;;10.68;100.00;97874.94;5016685;28;20305;-56
2022/07/18 03:32:48;;;;;;;2.97;2.43;;;;;;;10.68;100.00;97872.28;4992333;28;20513;-58
2022/07/18 03:35:18;;;;;;;2.40;2.23;;;;;;;10.59;100.00;97855.56;5039318;28;20258;-57
2022/07/18 03:37:46;;;;;;;2.27;2.17;;;;;;;10.61;100.00;97874.78;5007999;28;20332;-57
2022/07/18 03:40:14;;;;;;;2.73;2.53;;;;;;;10.61;100.00;97872.13;5011413;28;20316;-55
2022/07/18 03:42:42;;;;;;;2.17;2.07;;;;;;;10.56;100.00;97871.81;5037857;28;20192;-56
2022/07/18 03:45:10;;;;;;;2.37;2.17;;;;;;;10.57;100.00;97876.09;5023428;28;20211;-54
2022/07/18 03:47:39;;;;;;;2.80;2.60;;;;;;;10.60;100.00;97877.59;5006274;28;20242;-56
2022/07/18 03:50:08;;;;;;;2.50;2.40;;;;;;;10.50;100.00;97864.53;4957023;28;20247;-58
2022/07/18 03:52:38;;;;;;;3.30;2.37;;;;;;;10.53;100.00;97872.16;5039670;28;20207;-54
2022/07/18 03:55:06;;;;;;;3.17;2.70;;;;;;;10.52;100.00;97870.50;5038474;28;20262;-58
2022/07/18 03:57:35;;;;;;;2.50;2.30;;;;;;;10.58;100.00;97867.16;5035614;28;20249;-57
2022/07/18 04:00:04;;;;;;;5.03;2.93;;;;;;;10.60;100.00;97862.53;5039490;28;20230;-52
2022/07/18 04:02:32;;;;;;;2.70;2.50;;;;;;;10.69;100.00;97866.81;5037872;28;20198;-57
2022/07/18 04:05:00;;;;;;;3.10;2.43;;;;;;;10.75;100.00;97865.31;5004664;28;20320;-56
2022/07/18 04:07:28;;;;;;;2.50;2.40;;;;;;;10.84;100.00;97872.25;5017377;28;20947;-56
2022/07/18 04:09:58;;;;;;;2.30;2.20;;;;;;;10.88;100.00;97863.97;5023566;28;20669;-57
2022/07/18 04:12:26;;;;;;;3.60;2.80;;;;;;;10.96;100.00;97872.75;5037984;28;20252;-57
2022/07/18 04:14:54;;;;;;;4.67;2.60;;;;;;;11.04;100.00;97871.91;5043868;28;20234;-59
2022/07/18 04:17:22;;;;;;;2.77;2.53;;;;;;;11.06;100.00;97875.19;5036587;28;20196;-57
2022/07/18 04:19:50;;;;;;;2.83;2.53;;;;;;;11.13;100.00;97875.31;4994125;28;20547;-50
2022/07/18 04:22:18;;;;;;;2.83;2.73;;;;;;;11.19;100.00;97869.38;5038957;28;20231;-55
2022/07/18 04:24:47;;;;;;;3.10;2.60;;;;;;;11.29;100.00;97877.94;5015703;28;20676;-54
2022/07/18 04:27:21;;;;;;;2.50;2.30;;;;;;;11.40;100.00;97876.75;5016594;28;20284;-56
2022/07/18 04:29:49;;;;;;;2.50;2.40;;;;;;;11.52;100.00;97873.72;5038608;28;20226;-52
2022/07/18 04:32:18;;;;;;;4.10;2.57;;;;;;;11.61;100.00;97877.16;5035302;28;20407;-54
2022/07/18 04:34:46;;;;;;;3.17;2.87;;;;;;;11.71;100.00;97883.06;5042013;28;20227;-55
2022/07/18 04:37:14;;;;;;;2.50;2.30;;;;;;;11.85;100.00;97871.69;4994408;28;20680;-54
2022/07/18 04:39:43;;;;;;;10.43;9.33;;;;;;;11.99;100.00;97874.63;5037576;28;20307;-57
2022/07/18 04:42:11;;;;;;;3.97;3.67;;;;;;;12.06;100.00;97864.97;5012230;28;20631;-54
2022/07/18 04:44:40;;;;;;;3.23;2.57;;;;;;;12.30;100.00;97873.75;5041122;28;20203;-59
2022/07/18 04:47:09;;;;;;;3.13;2.40;;;;;;;12.43;100.00;97866.00;5035250;28;20262;-56
2022/07/18 04:49:37;;;;;;;2.83;2.63;;;;;;;12.59;100.00;97869.53;5040305;28;20646;-57
2022/07/18 04:52:05;;;;;;;2.60;2.37;;;;;;;12.73;100.00;97868.75;4984793;28;20801;-59
2022/07/18 04:54:34;;;;;;;2.60;2.30;;;;;;;12.81;100.00;97867.81;5039780;28;20206;-61
2022/07/18 04:57:02;;;;;;;2.70;2.50;;;;;;;13.02;100.00;97872.41;5014479;28;20215;-58
2022/07/18 04:59:30;;;;;;;2.20;2.10;;;;;;;13.21;100.00;97870.25;5039989;28;20222;-60
2022/07/18 05:02:06;;;;;;;2.73;2.63;;;;;;;13.39;100.00;97871.69;5036081;28;20229;-56
2022/07/18 05:04:34;;;;;;;1.93;1.83;;;;;;;13.56;100.00;97878.50;5011730;28;20218;-56
2022/07/18 05:07:02;;;;;;;2.77;2.53;;;;;;;13.70;100.00;97878.66;4988737;28;20232;-59
2022/07/18 05:09:31;;;;;;;2.27;2.17;;;;;;;13.90;100.00;97870.88;5038518;28;20640;-53
2022/07/18 05:11:59;;;;;;;3.97;2.30;;;;;;;14.10;100.00;97871.09;5016181;28;20214;-58
2022/07/18 05:14:27;;;;;;;2.87;2.37;;;;;;;14.28;100.00;97872.50;5032829;28;20855;-58
2022/07/18 05:16:55;;;;;;;2.83;2.10;;;;;;;14.39;100.00;97874.66;5043034;28;20238;-56
2022/07/18 05:19:25;;;;;;;2.27;2.17;;;;;;;14.55;100.00;97878.88;5037325;28;20231;-58
2022/07/18 05:21:53;;;;;;;4.17;2.73;;;;;;;14.70;100.00;97868.16;4987275;28;20214;-54
2022/07/18 05:24:21;;;;;;;3.10;2.70;;;;;;;14.85;100.00;97869.91;5038499;28;20548;-58
2022/07/18 05:26:50;;;;;;;2.43;2.23;;;;;;;14.76;100.00;97871.88;5012007;28;20204;-60
2022/07/18 05:29:18;;;;;;;2.13;2.03;;;;;;;14.98;100.00;97870.00;5036685;28;20223;-58
2022/07/18 05:31:46;;;;;;;2.50;2.30;;;;;;;15.08;100.00;97877.66;5035672;28;20203;-56
2022/07/18 05:34:14;;;;;;;2.63;2.10;;;;;;;15.25;100.00;97864.81;5038342;28;20203;-51
2022/07/18 05:36:44;;;;;;;2.03;1.90;;;;;;;15.48;100.00;97869.84;4987237;28;20211;-56
2022/07/18 05:39:13;;;;;;;5.97;2.93;;;;;;;15.67;100.00;97872.81;5036478;28;20695;-54
2022/07/18 05:41:41;;;;;;;3.97;3.37;;;;;;;15.83;100.00;97873.47;5034946;28;20707;-56
2022/07/18 05:44:09;;;;;;;3.17;2.60;;;;;;;16.02;100.00;97875.41;5010814;28;20528;-55
2022/07/18 05:46:37;;;;;;;2.83;2.20;;;;;;;16.18;100.00;97873.38;5036017;28;20638;-56
2022/07/18 05:49:05;;;;;;;3.07;2.17;;;;;;;16.40;100.00;97868.69;5034304;28;20664;-54
2022/07/18 05:51:34;;;;;;;2.63;2.50;;;;;;;16.57;100.00;97874.44;5030994;28;20212;-61
2022/07/18 05:54:04;;;;;;;4.30;2.20;;;;;;;16.63;95.76;97867.47;5003885;28;20226;-56
2022/07/18 05:56:32;;;;;;;4.07;2.23;;;;;;;16.82;96.93;97862.28;5039096;28;20199;-53
2022/07/18 05:59:01;;;;;;;5.03;2.80;;;;;;;16.96;95.03;97861.25;4982063;28;20602;-60
2022/07/18 06:01:29;;;;;;;2.77;2.33;;;;;;;17.09;90.30;97863.13;5036686;28;20742;-57
2022/07/18 06:03:57;;;;;;;2.17;2.07;;;;;;;17.17;88.78;97867.41;5037439;28;20228;-57
2022/07/18 06:06:26;;;;;;;8.57;2.53;;;;;;;17.36;89.44;97861.19;5036154;28;20304;-55
2022/07/18 06:08:54;;;;;;;3.03;2.10;;;;;;;17.59;90.36;97869.75;5037621;28;20216;-58
2022/07/18 06:11:23;;;;;;;3.60;2.27;;;;;;;17.68;82.99;97862.31;5035591;28;20553;-56
2022/07/18 06:13:52;;;;;;;3.13;1.97;;;;;;;17.82;83.65;97858.50;4993386;28;20721;-61
2022/07/18 06:16:20;;;;;;;2.83;2.07;;;;;;;17.97;78.82;97874.31;5039641;28;20234;-58
2022/07/18 06:18:49;;;;;;;4.80;2.77;;;;;;;18.12;80.08;97871.38;5041179;28;20285;-56
2022/07/18 06:21:17;;;;;;;4.00;2.20;;;;;;;18.28;76.34;97871.88;5040942;28;20211;-59
2022/07/18 06:23:45;;;;;;;5.17;2.27;;;;;;;18.47;72.91;97872.78;5041617;28;20537;-56
2022/07/18 06:26:14;;;;;;;3.40;2.87;;;;;;;18.61;72.15;97876.19;5038014;28;20200;-60
2022/07/18 06:28:44;;;;;;;2.33;2.17;;;;;;;18.76;70.41;97863.28;4995428;28;20223;-55
2022/07/18 06:31:16;;;;;;;2.57;2.37;;;;;;;18.80;70.31;97867.16;5038375;28;20294;-59
2022/07/18 06:33:45;;;;;;;2.30;2.10;;;;;;;19.05;66.35;97860.13;5011429;28;20520;-59
2022/07/18 06:36:14;;;;;;;2.60;2.13;;;;;;;19.30;65.50;97870.81;5040903;28;20208;-60
2022/07/18 06:38:42;;;;;;;3.37;1.93;;;;;;;19.49;63.75;97866.25;5042734;28;20431;-54
2022/07/18 06:41:10;;;;;;;2.23;2.10;;;;;;;19.69;57.49;97864.38;5043555;28;20227;-59
2022/07/18 06:43:41;;;;;;;4.97;2.00;;;;;;;19.75;61.16;97866.16;4991528;28;20204;-53
2022/07/18 06:46:10;;;;;;;5.97;2.60;;;;;;;19.86;55.68;97865.38;5035737;28;21299;-61
2022/07/18 06:48:39;;;;;;;3.27;2.10;;;;;;;19.98;52.97;97859.28;4999709;28;20216;-53
2022/07/18 06:51:09;;;;;;;1.97;1.87;;;;;;;20.17;55.80;97858.16;5020482;28;20282;-56
2022/07/18 06:53:37;;;;;;;2.20;2.10;;;;;;;20.32;55.62;97865.00;5014223;28;20207;-56
2022/07/18 06:56:06;;;;;;;2.40;2.30;;;;;;;20.44;54.53;97867.69;5023124;28;20307;-56
2022/07/18 06:58:34;;;;;;;8.53;2.00;;;;;;;20.66;55.48;97863.41;4961659;28;20234;-60
2022/07/18 07:01:03;;;;;;;2.40;2.20;;;;;;;20.72;53.98;97858.97;5014640;28;20228;-54
2022/07/18 07:03:33;;;;;;;2.17;1.97;;;;;;;20.84;51.25;97863.56;5012344;28;20204;-60
2022/07/18 07:06:01;;;;;;;2.63;1.67;;;;;;;20.99;49.87;97858.50;5005226;28;20212;-59
2022/07/18 07:08:30;;;;;;;2.57;1.90;;;;;;;21.06;48.56;97856.53;5020650;28;20220;-57
2022/07/18 07:10:58;;;;;;;10.57;4.93;;;;;;;21.03;48.76;97857.00;5020446;28;20232;-55
2022/07/18 07:13:27;;;;;;;10.83;9.63;;;;;;;21.21;49.52;97860.59;5003473;28;20208;-62
2022/07/18 07:15:55;;;;;;;3.03;2.67;;;;;;;21.18;49.83;97839.53;4995157;28;20243;-60
2022/07/18 07:18:24;;;;;;;1.60;1.50;;;;;;;21.24;46.94;97857.44;5007707;28;20223;-57
2022/07/18 07:20:54;;;;;;;1.83;1.73;;;;;;;21.46;49.08;97859.50;5020537;28;20220;-58
2022/07/18 07:23:22;;;;;;;3.30;2.10;;;;;;;21.53;46.89;97854.81;5017331;28;20444;-56
2022/07/18 07:25:51;;;;;;;3.17;2.07;;;;;;;21.65;47.02;97850.22;5023180;28;20216;-61
2022/07/18 07:28:19;;;;;;;2.10;2.00;;;;;;;21.76;46.91;97853.09;5018114;28;20344;-58
2022/07/18 07:30:47;;;;;;;1.90;1.80;;;;;;;21.86;45.97;97847.09;4980210;28;20236;-61
2022/07/18 07:33:16;;;;;;;2.10;1.90;;;;;;;21.87;46.97;97856.81;5015648;28;20204;-58
2022/07/18 07:35:44;;;;;;;2.10;1.90;;;;;;;21.94;45.63;97860.19;5021174;28;20207;-59
2022/07/18 07:38:18;;;;;;;3.77;3.27;;;;;;;22.16;45.69;97857.63;5016756;28;20397;-55
2022/07/18 07:40:46;;;;;;;3.00;2.30;;;;;;;22.25;44.45;97850.78;5020443;28;20897;-58
2022/07/18 07:43:17;;;;;;;1.70;1.60;;;;;;;22.39;43.60;97847.75;5015440;28;20701;-58
2022/07/18 07:45:48;;;;;;;3.33;2.10;;;;;;;22.49;43.98;97853.34;4977231;28;20216;-56
2022/07/18 07:48:17;;;;;;;3.07;2.23;;;;;;;22.47;43.12;97849.28;5033117;28;20759;-58
2022/07/18 07:50:46;;;;;;;4.63;4.23;;;;;;;22.67;44.27;97846.88;5040435;28;20715;-58
2022/07/18 07:53:15;;;;;;;6.00;2.80;;;;;;;22.78;41.53;97847.06;5036134;28;20204;-58
2022/07/18 07:55:44;;;;;;;2.03;1.90;;;;;;;22.72;41.97;97848.84;5038325;28;20229;-59
2022/07/18 07:58:12;;;;;;;2.40;2.30;;;;;;;22.74;41.63;97835.91;5023446;28;20419;-59
2022/07/18 08:00:41;;;;;;;2.10;1.90;;;;;;;22.83;41.14;97842.53;5037650;28;20655;-62
2022/07/18 08:03:10;;;;;;;2.10;2.00;;;;;;;23.04;40.31;97839.28;5006933;28;20200;-60
2022/07/18 08:05:45;;;;;;;2.00;1.90;;;;;;;23.30;40.61;97834.28;4991863;28;20215;-59
2022/07/18 08:08:15;;;;;;;1.97;1.87;;;;;;;23.33;39.53;97837.31;5030790;28;20206;-59
2022/07/18 08:10:43;;;;;;;2.10;1.90;;;;;;;23.34;39.75;97841.63;5017439;28;20285;-56
2022/07/18 08:13:13;;;;;;;2.90;2.70;;;;;;;23.50;38.82;97831.00;5017474;28;20222;-59
2022/07/18 08:15:42;;;;;;;1.73;1.63;;;;;;;23.65;39.05;97828.47;5028007;28;20277;-53
2022/07/18 08:18:10;;;;;;;3.27;1.80;;;;;;;23.63;39.43;97827.91;5042229;28;20568;-57
2022/07/18 08:20:39;;;;;;;2.03;1.93;;;;;;;23.78;38.40;97831.84;4995754;28;20234;-58
2022/07/18 08:23:08;;;;;;;2.50;2.30;;;;;;;23.85;40.11;97832.47;5037106;28;20208;-61
2022/07/18 08:25:40;;;;;;;2.17;1.70;;;;;;;23.94;37.55;97827.44;5039821;28;20241;-58
2022/07/18 08:28:09;;;;;;;2.00;1.90;;;;;;;23.97;38.34;97829.63;5023239;28;20616;-56
2022/07/18 08:30:38;;;;;;;1.73;1.70;;;;;;;24.01;38.14;97819.13;5030210;28;20231;-59
2022/07/18 08:33:07;;;;;;;3.67;1.83;;;;;;;24.11;37.86;97819.22;5033999;28;20203;-60
2022/07/18 08:35:37;;;;;;;1.93;1.83;;;;;;;24.23;39.31;97819.88;5039537;28;20793;-60
2022/07/18 08:38:05;;;;;;;2.20;2.00;;;;;;;24.39;37.49;97822.69;4994778;28;20306;-58
2022/07/18 08:40:35;;;;;;;2.10;2.00;;;;;;;24.46;37.77;97820.59;5041659;28;20214;-58
2022/07/18 08:43:05;;;;;;;2.23;1.97;;;;;;;24.45;38.22;97823.56;5020991;28;20204;-58
2022/07/18 08:45:52;;;;;;;3.77;2.03;;;;;;;24.57;38.18;97821.47;5036667;28;20207;-57
2022/07/18 08:48:21;;;;;;;4.90;2.20;;;;;;;24.76;37.76;97824.63;5022151;28;20235;-63
2022/07/18 08:50:50;;;;;;;5.53;2.60;;;;;;;24.84;36.51;97818.75;5042137;28;20707;-57
2022/07/18 08:53:19;;;;;;;2.33;2.13;;;;;;;24.83;36.07;97810.84;4972108;28;20399;-62
2022/07/18 08:55:49;;;;;;;2.07;1.97;;;;;;;24.91;37.44;97809.56;5039822;28;20226;-59
2022/07/18 08:58:19;;;;;;;2.60;2.30;;;;;;;24.99;36.50;97801.72;5019547;28;20917;-58
2022/07/18 09:01:08;;;;;;;1.90;1.80;;;;;;;25.15;36.46;97804.53;5038787;28;20232;-57
2022/07/18 09:03:36;;;;;;;1.97;1.60;;;;;;;25.24;35.42;97808.34;5027729;28;20832;-63
2022/07/18 09:06:07;;;;;;;3.07;1.90;;;;;;;25.31;35.06;97812.72;5011434;28;20199;-58
2022/07/18 09:08:36;;;;;;;2.87;2.67;;;;;;;25.33;35.68;97805.97;5038724;28;20199;-57
2022/07/18 09:11:09;;;;;;;1.80;1.70;;;;;;;25.47;35.03;97808.19;5023089;28;20233;-60
2022/07/18 09:13:59;;;;;;;2.10;2.00;;;;;;;25.58;34.25;97807.97;5034572;28;20239;-62
2022/07/18 09:16:28;;;;;;;1.73;1.63;;;;;;;25.58;34.38;97812.59;5012152;28;20285;-58
2022/07/18 09:18:57;;;;;;;2.73;2.00;;;;;;;25.68;34.91;97798.22;5023915;28;20228;-56
2022/07/18 09:21:25;;;;;;;2.30;1.70;;;;;;;25.71;35.79;97808.53;5034629;28;20780;-60
2022/07/18 09:24:01;;;;;;;1.73;1.63;;;;;;;25.86;35.02;97810.47;4995641;28;20722;-58
2022/07/18 09:26:39;;;;;;;5.90;2.57;;;;;;;25.90;34.36;97814.28;5040686;28;20207;-61
2022/07/18 09:29:09;;;;;;;2.03;1.77;;;;;;;26.07;33.89;97808.59;5034020;28;20212;-60
2022/07/18 09:31:56;;;;;;;1.80;1.70;;;;;;;26.10;33.12;97809.97;5020016;28;20207;-60
2022/07/18 09:34:35;;;;;;;1.90;1.80;;;;;;;26.18;33.44;97812.16;5020692;28;20226;-60
2022/07/18 09:37:04;;;;;;;1.50;1.40;;;;;;;26.00;32.86;97806.16;5007016;28;20706;-61
2022/07/18 09:39:33;;;;;;;2.00;1.90;;;;;;;26.08;32.52;97814.84;5015362;28;20232;-58
2022/07/18 09:42:14;;;;;;;2.57;1.80;;;;;;;25.77;32.88;97804.78;5035109;28;20295;-58
2022/07/18 09:44:44;;;;;;;1.50;1.50;;;;;;;25.81;32.93;97807.75;5040288;28;20202;-61
2022/07/18 09:47:12;;;;;;;1.90;1.80;;;;;;;25.96;32.36;97802.38;5020383;28;20360;-63
2022/07/18 09:49:42;;;;;;;2.63;2.17;;;;;;;26.01;31.62;97801.53;5029531;28;20687;-61
2022/07/18 09:52:11;;;;;;;1.83;1.73;;;;;;;26.06;31.12;97811.59;4999761;28;20205;-62
2022/07/18 09:54:40;;;;;;;2.03;1.80;;;;;;;26.11;31.74;97811.59;5039783;28;20666;-59
2022/07/18 09:57:08;;;;;;;1.60;1.50;;;;;;;25.93;30.87;97807.50;5035572;28;20356;-61
2022/07/18 09:59:38;;;;;;;5.10;2.20;;;;;;;26.22;31.28;97812.47;5039458;28;20270;-59
2022/07/18 10:02:14;;;;;;;2.87;1.90;;;;;;;26.41;31.24;97808.09;5024809;28;20514;-59
2022/07/18 10:04:43;;;;;;;2.27;2.07;;;;;;;26.48;30.10;97807.00;5026344;28;20220;-56
2022/07/18 10:07:12;;;;;;;1.83;1.73;;;;;;;26.52;30.54;97802.69;4996554;28;20948;-55
2022/07/18 10:09:40;;;;;;;7.63;6.93;;;;;;;26.53;30.21;97799.66;5041937;28;20663;-57
2022/07/18 10:12:09;;;;;;;3.43;2.00;;;;;;;26.43;31.11;97802.41;4995397;28;20232;-60
2022/07/18 10:14:38;;;;;;;2.50;2.20;;;;;;;26.52;30.03;97800.75;5044705;28;20403;-60
2022/07/18 10:17:07;;;;;;;1.77;1.67;;;;;;;26.59;31.59;97795.84;5042557;28;20208;-62
2022/07/18 10:19:36;;;;;;;7.63;2.40;;;;;;;26.70;29.61;97795.81;5020763;28;20729;-60
2022/07/18 10:22:06;;;;;;;1.73;1.60;;;;;;;26.71;30.30;97787.41;5040558;28;20210;-60
2022/07/18 10:24:39;;;;;;;1.47;1.47;;;;;;;26.78;30.71;97786.31;5041111;28;20430;-57
2022/07/18 10:27:16;;;;;;;4.03;1.60;;;;;;;26.94;31.91;97790.66;5023276;28;20566;-62
2022/07/18 10:30:13;;;;;;;3.10;2.17;;;;;;;26.67;28.76;97788.22;5026326;28;20325;-59
2022/07/18 10:32:42;;;;;;;3.03;2.83;;;;;;;26.80;30.05;97798.56;5037299;28;20618;-61
2022/07/18 10:35:16;;;;;;;2.23;2.03;;;;;;;26.82;29.80;97790.94;5032609;28;20232;-60
2022/07/18 10:37:45;;;;;;;2.60;1.60;;;;;;;26.97;30.88;97792.00;5043255;28;20594;-58
2022/07/18 10:40:25;;;;;;;2.40;1.67;;;;;;;27.00;28.35;97791.44;5036662;28;20229;-60
2022/07/18 10:43:31;;;;;;;2.10;2.00;;;;;;;26.96;29.23;97785.75;5039910;28;20206;-59
2022/07/18 10:46:00;;;;;;;2.37;1.67;;;;;;;27.06;28.27;97779.47;5042648;28;20870;-58
2022/07/18 10:48:57;;;;;;;1.90;1.40;;;;;;;27.33;29.81;97764.66;5036359;28;20231;-59
2022/07/18 10:51:36;;;;;;;1.70;1.60;;;;;;;27.55;27.90;97768.94;5021578;28;20246;-62
2022/07/18 10:54:09;;;;;;;1.80;1.70;;;;;;;27.69;28.34;97764.50;5018472;28;20215;-60
2022/07/18 10:57:09;;;;;;;1.60;1.50;;;;;;;27.86;27.17;97763.31;5038453;28;20704;-62
2022/07/18 10:59:40;;;;;;;2.93;1.73;;;;;;;27.91;29.33;97757.84;4995595;28;20234;-60
2022/07/18 11:02:09;;;;;;;2.90;1.60;;;;;;;28.04;30.75;97767.28;5040156;28;20203;-60
2022/07/18 11:04:40;;;;;;;22.00;20.10;;;;;;;27.95;29.36;97768.94;5040589;28;20294;-60
2022/07/18 11:07:17;;;;;;;4.03;3.63;;;;;;;27.88;28.70;97756.47;5024293;28;20215;-61
2022/07/18 11:09:48;;;;;;;2.47;2.13;;;;;;;27.98;27.16;97750.16;5039656;28;20222;-64
2022/07/18 11:12:28;;;;;;;1.93;1.73;;;;;;;28.11;27.08;97748.69;5036735;28;20740;-55
2022/07/18 11:15:01;;;;;;;2.00;1.90;;;;;;;28.19;27.62;97746.47;4997482;28;20203;-61
2022/07/18 11:18:02;;;;;;;2.10;1.90;;;;;;;28.26;28.88;97744.22;5038509;28;20489;-59
2022/07/18 11:20:39;;;;;;;2.40;2.30;;;;;;;28.44;28.00;97746.25;5031092;28;20412;-56
2022/07/18 11:23:21;;;;;;;2.07;1.90;;;;;;;28.47;28.30;97739.38;5021959;28;20230;-56
2022/07/18 11:25:50;;;;;;;2.80;2.00;;;;;;;28.54;28.75;97739.84;5041880;28;20581;-60
2022/07/18 11:28:25;;;;;;;1.90;1.80;;;;;;;28.69;27.65;97735.38;5038557;28;20858;-56
2022/07/18 11:31:01;;;;;;;2.80;2.30;;;;;;;28.73;27.60;97731.75;4994924;28;20253;-59
2022/07/18 11:33:34;;;;;;;4.97;4.67;;;;;;;28.60;28.19;97732.44;5040696;28;20212;-60
2022/07/18 11:36:06;;;;;;;2.30;2.10;;;;;;;28.62;27.68;97727.53;5037801;28;20212;-61
2022/07/18 11:38:38;;;;;;;3.30;1.63;;;;;;;28.70;27.97;97731.53;5009504;28;20747;-60
2022/07/18 11:41:08;;;;;;;2.00;1.90;;;;;;;28.86;28.31;97724.03;5037050;28;20222;-58
2022/07/18 11:43:36;;;;;;;1.40;1.40;;;;;;;29.18;28.13;97720.59;5039144;28;20218;-53
2022/07/18 11:46:06;;;;;;;1.97;1.87;;;;;;;29.37;28.53;97708.09;5032811;28;20623;-62